Wesley Chapel, Arkansas
Current Conditions -  °F | °C
As of 12:53 PM on Friday 24 Oct 2014 (Local Time) from KRUE Reporting Station
Overcast Overcast  
Wind Chill: 71°   Ceiling: 4600
Heat Index: 71°   Visibility: 10mi
Dew Point: 53°   Wind: 0mph
Humidity: 53%   Direction: NA
Pressure: 30.14"   Gusts: NA
Location:  35.227°N, 92.6879°W
Report Text: KRUE 241753Z AUTO 00000KT 10SM OVC046 22/12 A3014 RMK AO2 SLP202 T02170117 10217 20072 58012
Loading
Personal Weather Stations






























Interactive Weather Map
Tropical Storm Tracking
New forecast layout! Learn more

10-Day Weather Forecast

Advertisements
Track Severe Weather on mobile